sensor_id;sensor_type;location;lat;lon;timestamp;pressure;altitude;pressure_sealevel;temperature;humidity
66196;BME280;53000;45.182;5.736;2023-08-08T00:00:59;99426.94;;;21.80;35.52
66196;BME280;53000;45.182;5.736;2023-08-08T00:03:24;99436.41;;;21.84;35.26
66196;BME280;53000;45.182;5.736;2023-08-08T00:05:49;99439.41;;;21.83;35.37
66196;BME280;53000;45.182;5.736;2023-08-08T00:08:15;99434.63;;;21.78;35.12
66196;BME280;53000;45.182;5.736;2023-08-08T00:10:41;99434.63;;;21.78;35.10
66196;BME280;53000;45.182;5.736;2023-08-08T00:13:06;99426.72;;;21.70;34.93
66196;BME280;53000;45.182;5.736;2023-08-08T00:15:31;99434.50;;;21.73;35.24
66196;BME280;53000;45.182;5.736;2023-08-08T00:17:57;99424.94;;;21.64;35.00
66196;BME280;53000;45.182;5.736;2023-08-08T00:20:23;99431.50;;;21.63;35.20
66196;BME280;53000;45.182;5.736;2023-08-08T00:22:48;99436.78;;;21.64;35.23
66196;BME280;53000;45.182;5.736;2023-08-08T00:25:13;99433.03;;;21.59;35.24
66196;BME280;53000;45.182;5.736;2023-08-08T00:27:39;99433.16;;;21.52;35.56
66196;BME280;53000;45.182;5.736;2023-08-08T00:30:10;99430.50;;;21.46;35.49
66196;BME280;53000;45.182;5.736;2023-08-08T00:32:35;99435.50;;;21.37;35.54
66196;BME280;53000;45.182;5.736;2023-08-08T00:35:01;99429.88;;;21.32;36.14
66196;BME280;53000;45.182;5.736;2023-08-08T00:37:26;99418.59;;;21.33;36.74
66196;BME280;53000;45.182;5.736;2023-08-08T00:39:51;99424.72;;;21.35;36.02
66196;BME280;53000;45.182;5.736;2023-08-08T00:42:16;99409.28;;;21.34;36.15
66196;BME280;53000;45.182;5.736;2023-08-08T00:44:42;99418.25;;;21.30;36.45
66196;BME280;53000;45.182;5.736;2023-08-08T00:47:08;99424.81;;;21.29;37.17
66196;BME280;53000;45.182;5.736;2023-08-08T00:49:35;99420.16;;;21.29;37.09
66196;BME280;53000;45.182;5.736;2023-08-08T00:52:01;99415.72;;;21.28;36.94
66196;BME280;53000;45.182;5.736;2023-08-08T00:54:28;99419.53;;;21.27;37.10
66196;BME280;53000;45.182;5.736;2023-08-08T00:56:53;99416.44;;;21.23;36.83
66196;BME280;53000;45.182;5.736;2023-08-08T00:59:19;99422.06;;;21.29;37.06
66196;BME280;53000;45.182;5.736;2023-08-08T01:01:45;99410.09;;;21.23;37.03
66196;BME280;53000;45.182;5.736;2023-08-08T01:04:11;99415.13;;;21.26;37.19
66196;BME280;53000;45.182;5.736;2023-08-08T01:07:01;99420.63;;;21.26;37.43
66196;BME280;53000;45.182;5.736;2023-08-08T01:09:36;99425.31;;;21.26;37.66
66196;BME280;53000;45.182;5.736;2023-08-08T01:12:02;99407.91;;;21.13;37.73
66196;BME280;53000;45.182;5.736;2023-08-08T01:14:30;99417.72;;;21.09;37.61
66196;BME280;53000;45.182;5.736;2023-08-08T01:16:57;99406.72;;;21.09;38.08
66196;BME280;53000;45.182;5.736;2023-08-08T01:19:32;99405.97;;;21.02;37.87
66196;BME280;53000;45.182;5.736;2023-08-08T01:22:14;99416.13;;;21.01;38.06
66196;BME280;53000;45.182;5.736;2023-08-08T01:24:42;99416.59;;;20.98;38.54
66196;BME280;53000;45.182;5.736;2023-08-08T01:27:09;99413.13;;;20.91;38.07
66196;BME280;53000;45.182;5.736;2023-08-08T01:29:36;99413.81;;;20.87;38.30
66196;BME280;53000;45.182;5.736;2023-08-08T01:32:02;99407.19;;;20.76;37.79
66196;BME280;53000;45.182;5.736;2023-08-08T01:34:28;99407.44;;;20.74;37.69
66196;BME280;53000;45.182;5.736;2023-08-08T01:37:09;99421.19;;;20.74;37.63
66196;BME280;53000;45.182;5.736;2023-08-08T01:39:38;99416.00;;;20.66;37.74
66196;BME280;53000;45.182;5.736;2023-08-08T01:42:06;99425.78;;;20.62;38.36
66196;BME280;53000;45.182;5.736;2023-08-08T01:44:32;99427.31;;;20.58;38.64
66196;BME280;53000;45.182;5.736;2023-08-08T01:47:00;99431.34;;;20.55;38.40
66196;BME280;53000;45.182;5.736;2023-08-08T01:49:25;99426.16;;;20.47;38.30
66196;BME280;53000;45.182;5.736;2023-08-08T01:51:51;99428.69;;;20.49;38.75
66196;BME280;53000;45.182;5.736;2023-08-08T01:54:18;99432.56;;;20.41;38.37
66196;BME280;53000;45.182;5.736;2023-08-08T01:56:43;99427.84;;;20.30;38.66
66196;BME280;53000;45.182;5.736;2023-08-08T01:59:09;99420.91;;;20.27;39.00
66196;BME280;53000;45.182;5.736;2023-08-08T02:01:34;99422.03;;;20.19;39.01
66196;BME280;53000;45.182;5.736;2023-08-08T02:03:59;99424.34;;;20.22;38.87
66196;BME280;53000;45.182;5.736;2023-08-08T02:06:25;99416.41;;;20.14;39.03
66196;BME280;53000;45.182;5.736;2023-08-08T02:08:50;99434.72;;;20.20;39.18
66196;BME280;53000;45.182;5.736;2023-08-08T02:11:15;99422.72;;;20.15;38.80
66196;BME280;53000;45.182;5.736;2023-08-08T02:13:41;99420.28;;;20.07;39.13
66196;BME280;53000;45.182;5.736;2023-08-08T02:16:06;99429.97;;;20.09;38.87
66196;BME280;53000;45.182;5.736;2023-08-08T02:18:31;99416.97;;;19.98;39.31
66196;BME280;53000;45.182;5.736;2023-08-08T02:20:57;99426.06;;;19.98;39.02
66196;BME280;53000;45.182;5.736;2023-08-08T02:23:22;99427.16;;;19.97;39.93
66196;BME280;53000;45.182;5.736;2023-08-08T02:25:47;99431.81;;;19.97;40.61
66196;BME280;53000;45.182;5.736;2023-08-08T02:28:13;99432.25;;;19.94;40.76
66196;BME280;53000;45.182;5.736;2023-08-08T02:30:38;99424.47;;;19.91;40.59
66196;BME280;53000;45.182;5.736;2023-08-08T02:33:03;99420.94;;;19.84;40.53
66196;BME280;53000;45.182;5.736;2023-08-08T02:35:29;99436.97;;;19.87;40.73
66196;BME280;53000;45.182;5.736;2023-08-08T02:37:55;99440.56;;;19.87;40.76
66196;BME280;53000;45.182;5.736;2023-08-08T02:40:21;99433.22;;;19.81;40.87
66196;BME280;53000;45.182;5.736;2023-08-08T02:42:48;99432.78;;;19.84;40.79
66196;BME280;53000;45.182;5.736;2023-08-08T02:45:14;99426.66;;;19.82;41.19
66196;BME280;53000;45.182;5.736;2023-08-08T02:47:39;99431.09;;;19.83;39.90
66196;BME280;53000;45.182;5.736;2023-08-08T02:50:05;99433.59;;;19.85;40.96
66196;BME280;53000;45.182;5.736;2023-08-08T02:52:30;99431.97;;;19.77;40.70
66196;BME280;53000;45.182;5.736;2023-08-08T02:54:56;99430.31;;;19.76;41.08
66196;BME280;53000;45.182;5.736;2023-08-08T02:57:21;99436.25;;;19.73;41.08
66196;BME280;53000;45.182;5.736;2023-08-08T02:59:46;99436.88;;;19.68;40.33
66196;BME280;53000;45.182;5.736;2023-08-08T03:02:12;99426.81;;;19.62;40.68
66196;BME280;53000;45.182;5.736;2023-08-08T03:04:37;99426.16;;;19.67;40.80
66196;BME280;53000;45.182;5.736;2023-08-08T03:07:03;99436.28;;;19.66;41.31
66196;BME280;53000;45.182;5.736;2023-08-08T03:09:29;99436.13;;;19.61;41.94
66196;BME280;53000;45.182;5.736;2023-08-08T03:11:55;99447.53;;;19.58;41.38
66196;BME280;53000;45.182;5.736;2023-08-08T03:14:20;99441.66;;;19.54;41.22
66196;BME280;53000;45.182;5.736;2023-08-08T03:16:45;99438.53;;;19.51;41.33
66196;BME280;53000;45.182;5.736;2023-08-08T03:19:11;99441.72;;;19.48;41.44
66196;BME280;53000;45.182;5.736;2023-08-08T03:21:36;99448.25;;;19.47;41.27
66196;BME280;53000;45.182;5.736;2023-08-08T03:24:01;99446.41;;;19.40;42.35
66196;BME280;53000;45.182;5.736;2023-08-08T03:26:27;99451.28;;;19.38;42.36
66196;BME280;53000;45.182;5.736;2023-08-08T03:28:55;99452.56;;;19.36;42.29
66196;BME280;53000;45.182;5.736;2023-08-08T03:31:21;99449.81;;;19.36;42.11
66196;BME280;53000;45.182;5.736;2023-08-08T03:33:46;99453.41;;;19.36;41.60
66196;BME280;53000;45.182;5.736;2023-08-08T03:36:12;99452.63;;;19.29;42.06
66196;BME280;53000;45.182;5.736;2023-08-08T03:38:38;99452.84;;;19.28;42.37
66196;BME280;53000;45.182;5.736;2023-08-08T03:41:04;99449.53;;;19.19;42.03
66196;BME280;53000;45.182;5.736;2023-08-08T03:43:29;99444.28;;;19.17;42.54
66196;BME280;53000;45.182;5.736;2023-08-08T03:45:55;99455.28;;;19.11;42.33
66196;BME280;53000;45.182;5.736;2023-08-08T03:48:20;99448.16;;;19.03;42.61
66196;BME280;53000;45.182;5.736;2023-08-08T03:50:45;99446.91;;;18.99;42.96
66196;BME280;53000;45.182;5.736;2023-08-08T03:53:12;99443.13;;;18.93;42.82
66196;BME280;53000;45.182;5.736;2023-08-08T03:55:37;99447.16;;;18.91;43.06
66196;BME280;53000;45.182;5.736;2023-08-08T03:58:03;99445.53;;;18.83;42.75
66196;BME280;53000;45.182;5.736;2023-08-08T04:00:28;99454.16;;;18.87;42.83
66196;BME280;53000;45.182;5.736;2023-08-08T04:02:54;99451.84;;;18.84;42.88
66196;BME280;53000;45.182;5.736;2023-08-08T04:05:19;99448.28;;;18.83;43.03
66196;BME280;53000;45.182;5.736;2023-08-08T04:07:45;99450.41;;;18.81;43.25
66196;BME280;53000;45.182;5.736;2023-08-08T04:10:10;99447.44;;;18.76;43.68
66196;BME280;53000;45.182;5.736;2023-08-08T04:12:36;99459.47;;;18.75;44.30
66196;BME280;53000;45.182;5.736;2023-08-08T04:15:01;99466.25;;;18.72;43.67
66196;BME280;53000;45.182;5.736;2023-08-08T04:17:27;99472.97;;;18.70;43.48
66196;BME280;53000;45.182;5.736;2023-08-08T04:19:52;99462.25;;;18.68;44.21
66196;BME280;53000;45.182;5.736;2023-08-08T04:22:17;99461.41;;;18.61;43.83
66196;BME280;53000;45.182;5.736;2023-08-08T04:24:43;99470.91;;;18.58;44.10
66196;BME280;53000;45.182;5.736;2023-08-08T04:27:09;99476.59;;;18.57;44.05
66196;BME280;53000;45.182;5.736;2023-08-08T04:29:35;99470.13;;;18.51;43.47
66196;BME280;53000;45.182;5.736;2023-08-08T04:32:00;99474.13;;;18.49;44.36
66196;BME280;53000;45.182;5.736;2023-08-08T04:34:25;99469.28;;;18.44;44.34
66196;BME280;53000;45.182;5.736;2023-08-08T04:36:51;99465.50;;;18.45;44.81
66196;BME280;53000;45.182;5.736;2023-08-08T04:39:16;99467.59;;;18.43;44.68
66196;BME280;53000;45.182;5.736;2023-08-08T04:41:42;99473.94;;;18.44;44.77
66196;BME280;53000;45.182;5.736;2023-08-08T04:44:07;99470.75;;;18.40;44.20
66196;BME280;53000;45.182;5.736;2023-08-08T04:46:32;99474.56;;;18.46;44.60
66196;BME280;53000;45.182;5.736;2023-08-08T04:48:58;99475.00;;;18.43;43.94
66196;BME280;53000;45.182;5.736;2023-08-08T04:51:23;99467.84;;;18.35;44.98
66196;BME280;53000;45.182;5.736;2023-08-08T04:53:50;99465.53;;;18.32;44.69
66196;BME280;53000;45.182;5.736;2023-08-08T04:56:15;99468.69;;;18.29;44.15
66196;BME280;53000;45.182;5.736;2023-08-08T04:58:40;99461.53;;;18.28;43.95
66196;BME280;53000;45.182;5.736;2023-08-08T05:01:06;99461.53;;;18.28;44.34
66196;BME280;53000;45.182;5.736;2023-08-08T05:03:33;99463.00;;;18.30;43.58
66196;BME280;53000;45.182;5.736;2023-08-08T05:05:59;99467.03;;;18.28;43.83
66196;BME280;53000;45.182;5.736;2023-08-08T05:08:24;99464.06;;;18.23;44.10
66196;BME280;53000;45.182;5.736;2023-08-08T05:10:50;99457.56;;;18.17;44.11
66196;BME280;53000;45.182;5.736;2023-08-08T05:13:15;99468.53;;;18.17;44.15
66196;BME280;53000;45.182;5.736;2023-08-08T05:15:40;99475.47;;;18.19;44.19
66196;BME280;53000;45.182;5.736;2023-08-08T05:18:06;99473.56;;;18.20;44.25
66196;BME280;53000;45.182;5.736;2023-08-08T05:20:31;99467.25;;;18.19;43.87
66196;BME280;53000;45.182;5.736;2023-08-08T05:22:57;99469.38;;;18.17;44.49
66196;BME280;53000;45.182;5.736;2023-08-08T05:25:22;99476.31;;;18.13;44.64
66196;BME280;53000;45.182;5.736;2023-08-08T05:27:47;99464.56;;;18.06;44.18
66196;BME280;53000;45.182;5.736;2023-08-08T05:30:15;99479.72;;;18.09;44.15
66196;BME280;53000;45.182;5.736;2023-08-08T05:32:40;99469.41;;;17.97;44.66
66196;BME280;53000;45.182;5.736;2023-08-08T05:35:06;99486.47;;;18.00;44.51
66196;BME280;53000;45.182;5.736;2023-08-08T05:37:31;99482.47;;;18.02;44.23
66196;BME280;53000;45.182;5.736;2023-08-08T05:39:57;99486.66;;;18.05;44.02
66196;BME280;53000;45.182;5.736;2023-08-08T05:42:22;99492.16;;;18.05;44.24
66196;BME280;53000;45.182;5.736;2023-08-08T05:44:47;99493.41;;;18.02;44.79
66196;BME280;53000;45.182;5.736;2023-08-08T05:47:13;99480.34;;;18.04;44.81
66196;BME280;53000;45.182;5.736;2023-08-08T05:49:38;99489.59;;;18.10;44.51
66196;BME280;53000;45.182;5.736;2023-08-08T05:52:06;99501.81;;;18.14;44.67
66196;BME280;53000;45.182;5.736;2023-08-08T05:54:32;99500.97;;;18.13;44.67
66196;BME280;53000;45.182;5.736;2023-08-08T05:56:57;99495.72;;;18.12;44.56
66196;BME280;53000;45.182;5.736;2023-08-08T05:59:22;99496.31;;;18.21;44.31
66196;BME280;53000;45.182;5.736;2023-08-08T06:01:48;99494.22;;;18.23;44.39
66196;BME280;53000;45.182;5.736;2023-08-08T06:04:13;99495.06;;;18.30;44.25
66196;BME280;53000;45.182;5.736;2023-08-08T06:06:39;99489.97;;;18.33;44.44
66196;BME280;53000;45.182;5.736;2023-08-08T06:09:04;99496.94;;;18.36;44.70
66196;BME280;53000;45.182;5.736;2023-08-08T06:11:29;99497.34;;;18.39;44.46
66196;BME280;53000;45.182;5.736;2023-08-08T06:13:55;99504.06;;;18.44;44.67
66196;BME280;53000;45.182;5.736;2023-08-08T06:16:21;99496.72;;;18.37;44.19
66196;BME280;53000;45.182;5.736;2023-08-08T06:18:46;99501.13;;;18.45;44.48
66196;BME280;53000;45.182;5.736;2023-08-08T06:21:12;99504.50;;;18.47;44.56
66196;BME280;53000;45.182;5.736;2023-08-08T06:23:37;99511.84;;;18.53;44.34
66196;BME280;53000;45.182;5.736;2023-08-08T06:26:02;99499.41;;;18.51;44.72
66196;BME280;53000;45.182;5.736;2023-08-08T06:28:28;99509.94;;;18.54;44.58
66196;BME280;53000;45.182;5.736;2023-08-08T06:30:55;99506.59;;;18.52;44.38
66196;BME280;53000;45.182;5.736;2023-08-08T06:33:20;99504.88;;;18.57;44.06
66196;BME280;53000;45.182;5.736;2023-08-08T06:35:46;99503.19;;;18.56;44.93
66196;BME280;53000;45.182;5.736;2023-08-08T06:38:11;99508.25;;;18.59;44.31
66196;BME280;53000;45.182;5.736;2023-08-08T06:40:37;99512.00;;;18.65;44.76
66196;BME280;53000;45.182;5.736;2023-08-08T06:43:02;99508.84;;;18.68;44.35
66196;BME280;53000;45.182;5.736;2023-08-08T06:45:28;99517.25;;;18.73;44.15
66196;BME280;53000;45.182;5.736;2023-08-08T06:47:53;99515.16;;;18.75;43.97
66196;BME280;53000;45.182;5.736;2023-08-08T06:50:19;99512.84;;;18.79;44.81
66196;BME280;53000;45.182;5.736;2023-08-08T06:52:45;99517.84;;;18.89;44.35
66196;BME280;53000;45.182;5.736;2023-08-08T06:55:10;99515.53;;;18.92;43.74
66196;BME280;53000;45.182;5.736;2023-08-08T06:57:36;99524.56;;;18.99;43.92
66196;BME280;53000;45.182;5.736;2023-08-08T07:00:03;99518.25;;;18.99;43.44
66196;BME280;53000;45.182;5.736;2023-08-08T07:02:31;99512.75;;;18.99;43.32
66196;BME280;53000;45.182;5.736;2023-08-08T07:04:57;99518.81;;;19.08;43.67
66196;BME280;53000;45.182;5.736;2023-08-08T07:07:22;99519.41;;;19.16;43.20
66196;BME280;53000;45.182;5.736;2023-08-08T07:09:48;99517.69;;;19.22;43.15
66196;BME280;53000;45.182;5.736;2023-08-08T07:12:13;99502.72;;;19.18;43.00
66196;BME280;53000;45.182;5.736;2023-08-08T07:14:39;99510.66;;;19.33;42.67
66196;BME280;53000;45.182;5.736;2023-08-08T07:17:04;99519.28;;;19.36;42.90
66196;BME280;53000;45.182;5.736;2023-08-08T07:19:30;99510.00;;;19.37;42.66
66196;BME280;53000;45.182;5.736;2023-08-08T07:21:55;99499.69;;;19.33;42.65
66196;BME280;53000;45.182;5.736;2023-08-08T07:24:20;99514.00;;;19.41;42.63
66196;BME280;53000;45.182;5.736;2023-08-08T07:26:46;99510.56;;;19.46;43.21
66196;BME280;53000;45.182;5.736;2023-08-08T07:29:11;99510.69;;;19.58;42.98
66196;BME280;53000;45.182;5.736;2023-08-08T07:31:37;99515.28;;;19.64;42.75
66196;BME280;53000;45.182;5.736;2023-08-08T07:34:02;99495.97;;;19.52;42.57
66196;BME280;53000;45.182;5.736;2023-08-08T07:36:28;99511.72;;;19.64;42.79
66196;BME280;53000;45.182;5.736;2023-08-08T07:38:53;99511.28;;;19.67;42.52
66196;BME280;53000;45.182;5.736;2023-08-08T07:41:25;99515.25;;;20.21;42.69
66196;BME280;53000;45.182;5.736;2023-08-08T07:43:51;99508.69;;;22.57;39.96
66196;BME280;53000;45.182;5.736;2023-08-08T07:46:16;99503.75;;;25.03;36.16
66196;BME280;53000;45.182;5.736;2023-08-08T07:48:42;99510.75;;;27.30;33.68
66196;BME280;53000;45.182;5.736;2023-08-08T07:51:07;99505.56;;;29.06;28.95
66196;BME280;53000;45.182;5.736;2023-08-08T07:53:32;99504.97;;;30.33;29.17
66196;BME280;53000;45.182;5.736;2023-08-08T07:55:58;99516.47;;;31.66;28.55
66196;BME280;53000;45.182;5.736;2023-08-08T07:58:23;99507.56;;;32.76;25.38
66196;BME280;53000;45.182;5.736;2023-08-08T08:00:52;99503.19;;;33.84;22.06
66196;BME280;53000;45.182;5.736;2023-08-08T08:03:19;99501.66;;;34.54;24.57
66196;BME280;53000;45.182;5.736;2023-08-08T08:05:44;99512.09;;;35.02;22.11
66196;BME280;53000;45.182;5.736;2023-08-08T08:08:09;99507.91;;;35.49;23.52
66196;BME280;53000;45.182;5.736;2023-08-08T08:10:35;99498.47;;;35.88;21.77
66196;BME280;53000;45.182;5.736;2023-08-08T08:13:00;99502.22;;;36.27;20.51
66196;BME280;53000;45.182;5.736;2023-08-08T08:15:26;99498.53;;;36.44;20.42
66196;BME280;53000;45.182;5.736;2023-08-08T08:17:51;99493.41;;;36.37;19.92
66196;BME280;53000;45.182;5.736;2023-08-08T08:20:17;99500.72;;;36.38;19.27
66196;BME280;53000;45.182;5.736;2023-08-08T08:22:42;99493.66;;;36.15;19.53
66196;BME280;53000;45.182;5.736;2023-08-08T08:25:08;99497.44;;;36.28;19.40
66196;BME280;53000;45.182;5.736;2023-08-08T08:27:37;99485.25;;;36.53;20.02
66196;BME280;53000;45.182;5.736;2023-08-08T08:30:06;99486.22;;;36.96;20.07
66196;BME280;53000;45.182;5.736;2023-08-08T08:32:34;99485.25;;;37.21;18.89
66196;BME280;53000;45.182;5.736;2023-08-08T08:35:01;99486.13;;;37.13;18.89
66196;BME280;53000;45.182;5.736;2023-08-08T08:37:29;99482.91;;;36.94;19.82
66196;BME280;53000;45.182;5.736;2023-08-08T08:39:54;99482.53;;;36.66;19.38
66196;BME280;53000;45.182;5.736;2023-08-08T08:42:19;99485.69;;;36.08;18.28
66196;BME280;53000;45.182;5.736;2023-08-08T08:44:45;99482.41;;;35.80;18.77
66196;BME280;53000;45.182;5.736;2023-08-08T08:47:12;99479.38;;;35.15;18.74
66196;BME280;53000;45.182;5.736;2023-08-08T08:49:39;99474.13;;;34.74;19.29
66196;BME280;53000;45.182;5.736;2023-08-08T08:52:07;99465.47;;;34.61;21.08
66196;BME280;53000;45.182;5.736;2023-08-08T08:54:32;99459.09;;;34.38;18.76
66196;BME280;53000;45.182;5.736;2023-08-08T08:56:58;99466.41;;;34.17;20.63
66196;BME280;53000;45.182;5.736;2023-08-08T08:59:24;99472.25;;;33.98;20.32
66196;BME280;53000;45.182;5.736;2023-08-08T09:01:50;99458.06;;;33.80;20.72
66196;BME280;53000;45.182;5.736;2023-08-08T09:04:18;99457.75;;;33.82;20.93
66196;BME280;53000;45.182;5.736;2023-08-08T09:06:44;99460.91;;;33.44;20.50
66196;BME280;53000;45.182;5.736;2023-08-08T09:09:11;99454.97;;;33.23;21.05
66196;BME280;53000;45.182;5.736;2023-08-08T09:11:38;99445.25;;;33.07;21.37
66196;BME280;53000;45.182;5.736;2023-08-08T09:14:15;99439.34;;;32.80;21.46
66196;BME280;53000;45.182;5.736;2023-08-08T09:16:42;99448.38;;;32.64;21.90
66196;BME280;53000;45.182;5.736;2023-08-08T09:19:08;99444.81;;;32.30;22.28
66196;BME280;53000;45.182;5.736;2023-08-08T09:21:33;99431.25;;;31.91;21.34
66196;BME280;53000;45.182;5.736;2023-08-08T09:23:59;99432.47;;;31.33;21.96
66196;BME280;53000;45.182;5.736;2023-08-08T09:26:24;99428.06;;;30.89;22.44
66196;BME280;53000;45.182;5.736;2023-08-08T09:28:50;99424.16;;;30.66;22.76
66196;BME280;53000;45.182;5.736;2023-08-08T09:31:16;99414.50;;;30.34;22.85
66196;BME280;53000;45.182;5.736;2023-08-08T09:33:42;99424.22;;;30.07;23.11
66196;BME280;53000;45.182;5.736;2023-08-08T09:36:16;99423.06;;;29.84;22.66
66196;BME280;53000;45.182;5.736;2023-08-08T09:38:41;99430.16;;;29.71;22.56
66196;BME280;53000;45.182;5.736;2023-08-08T09:41:06;99416.63;;;29.54;23.29
66196;BME280;53000;45.182;5.736;2023-08-08T09:43:32;99412.06;;;29.29;23.03
66196;BME280;53000;45.182;5.736;2023-08-08T09:45:58;99405.00;;;28.98;23.48
66196;BME280;53000;45.182;5.736;2023-08-08T09:48:29;99401.25;;;28.73;23.94
66196;BME280;53000;45.182;5.736;2023-08-08T09:50:55;99401.63;;;28.56;24.48
66196;BME280;53000;45.182;5.736;2023-08-08T09:53:22;99410.28;;;28.49;24.63
66196;BME280;53000;45.182;5.736;2023-08-08T09:55:48;99403.03;;;28.43;24.87
66196;BME280;53000;45.182;5.736;2023-08-08T09:58:14;99393.63;;;28.29;24.61
66196;BME280;53000;45.182;5.736;2023-08-08T10:00:43;99398.63;;;28.27;24.88
66196;BME280;53000;45.182;5.736;2023-08-08T10:03:09;99402.53;;;28.26;24.63
66196;BME280;53000;45.182;5.736;2023-08-08T10:05:34;99395.03;;;28.21;24.64
66196;BME280;53000;45.182;5.736;2023-08-08T10:08:02;99392.25;;;28.21;24.40
66196;BME280;53000;45.182;5.736;2023-08-08T10:10:28;99394.50;;;28.14;24.96
66196;BME280;53000;45.182;5.736;2023-08-08T10:12:54;99395.03;;;28.21;25.00
66196;BME280;53000;45.182;5.736;2023-08-08T10:15:25;99385.81;;;28.31;24.75
66196;BME280;53000;45.182;5.736;2023-08-08T10:17:53;99388.84;;;28.40;24.47
66196;BME280;53000;45.182;5.736;2023-08-08T10:20:20;99385.75;;;28.46;24.30
66196;BME280;53000;45.182;5.736;2023-08-08T10:22:46;99383.78;;;28.57;24.82
66196;BME280;53000;45.182;5.736;2023-08-08T10:25:25;99394.00;;;28.72;24.18
66196;BME280;53000;45.182;5.736;2023-08-08T10:28:08;99378.41;;;28.76;24.43
66196;BME280;53000;45.182;5.736;2023-08-08T10:30:58;99385.78;;;28.96;24.51
66196;BME280;53000;45.182;5.736;2023-08-08T10:33:28;99387.88;;;29.20;23.90
66196;BME280;53000;45.182;5.736;2023-08-08T10:36:05;99374.34;;;29.37;23.69
66196;BME280;53000;45.182;5.736;2023-08-08T10:38:47;99381.53;;;29.48;24.53
66196;BME280;53000;45.182;5.736;2023-08-08T10:41:19;99378.94;;;29.57;23.65
66196;BME280;53000;45.182;5.736;2023-08-08T10:43:53;99371.66;;;29.61;24.40
66196;BME280;53000;45.182;5.736;2023-08-08T10:46:25;99383.97;;;29.89;23.97
66196;BME280;53000;45.182;5.736;2023-08-08T10:48:52;99388.44;;;30.14;23.93
66196;BME280;53000;45.182;5.736;2023-08-08T10:51:18;99380.00;;;30.44;23.88
66196;BME280;53000;45.182;5.736;2023-08-08T10:53:45;99380.28;;;30.66;22.52
66196;BME280;53000;45.182;5.736;2023-08-08T10:56:13;99366.56;;;30.89;22.00
66196;BME280;53000;45.182;5.736;2023-08-08T10:58:41;99371.56;;;31.11;22.53
66196;BME280;53000;45.182;5.736;2023-08-08T11:01:07;99369.56;;;31.30;22.98
66196;BME280;53000;45.182;5.736;2023-08-08T11:03:38;99362.41;;;31.43;21.26
66196;BME280;53000;45.182;5.736;2023-08-08T11:06:06;99366.28;;;31.61;22.23
66196;BME280;53000;45.182;5.736;2023-08-08T11:08:32;99348.25;;;31.67;22.03
66196;BME280;53000;45.182;5.736;2023-08-08T11:10:58;99340.50;;;31.78;21.71
66196;BME280;53000;45.182;5.736;2023-08-08T11:13:24;99331.06;;;31.88;22.08
66196;BME280;53000;45.182;5.736;2023-08-08T11:15:49;99336.28;;;31.94;21.13
66196;BME280;53000;45.182;5.736;2023-08-08T11:18:16;99329.25;;;32.11;21.07
66196;BME280;53000;45.182;5.736;2023-08-08T11:20:41;99325.72;;;32.19;21.47
66196;BME280;53000;45.182;5.736;2023-08-08T11:23:08;99317.31;;;32.19;21.46
66196;BME280;53000;45.182;5.736;2023-08-08T11:25:36;99324.25;;;32.22;21.76
66196;BME280;53000;45.182;5.736;2023-08-08T11:28:02;99323.84;;;32.28;20.41
66196;BME280;53000;45.182;5.736;2023-08-08T11:30:39;99322.50;;;32.26;21.82
66196;BME280;53000;45.182;5.736;2023-08-08T11:33:05;99321.16;;;32.23;21.59
66196;BME280;53000;45.182;5.736;2023-08-08T11:35:31;99321.03;;;32.28;21.50
66196;BME280;53000;45.182;5.736;2023-08-08T11:37:59;99314.69;;;32.36;21.45
66196;BME280;53000;45.182;5.736;2023-08-08T11:40:27;99307.34;;;32.40;21.44
66196;BME280;53000;45.182;5.736;2023-08-08T11:42:53;99302.88;;;32.39;20.75
66196;BME280;53000;45.182;5.736;2023-08-08T11:45:19;99297.00;;;32.27;20.66
66196;BME280;53000;45.182;5.736;2023-08-08T11:47:49;99296.25;;;32.22;21.12
66196;BME280;53000;45.182;5.736;2023-08-08T11:50:15;99290.88;;;32.11;21.72
66196;BME280;53000;45.182;5.736;2023-08-08T11:52:42;99296.06;;;32.04;21.64
66196;BME280;53000;45.182;5.736;2023-08-08T11:55:08;99304.22;;;31.87;21.00
66196;BME280;53000;45.182;5.736;2023-08-08T11:57:38;99292.19;;;31.72;21.79
66196;BME280;53000;45.182;5.736;2023-08-08T12:02:32;99295.06;;;31.53;21.49
66196;BME280;53000;45.182;5.736;2023-08-08T12:05:04;99290.63;;;31.52;21.77
66196;BME280;53000;45.182;5.736;2023-08-08T12:07:32;99291.13;;;31.54;21.70
66196;BME280;53000;45.182;5.736;2023-08-08T12:09:57;99286.66;;;31.53;22.10
66196;BME280;53000;45.182;5.736;2023-08-08T12:12:26;99276.50;;;31.44;22.12
66196;BME280;53000;45.182;5.736;2023-08-08T12:14:54;99280.81;;;31.36;22.19
66196;BME280;53000;45.182;5.736;2023-08-08T12:17:21;99279.47;;;31.33;22.01
66196;BME280;53000;45.182;5.736;2023-08-08T12:19:47;99271.88;;;31.34;21.66
66196;BME280;53000;45.182;5.736;2023-08-08T12:22:14;99275.84;;;31.33;21.56
66196;BME280;53000;45.182;5.736;2023-08-08T12:24:39;99271.06;;;31.33;22.06
66196;BME280;53000;45.182;5.736;2023-08-08T12:27:05;99279.69;;;31.37;21.18
66196;BME280;53000;45.182;5.736;2023-08-08T12:29:30;99268.03;;;31.30;21.20
66196;BME280;53000;45.182;5.736;2023-08-08T12:31:56;99271.00;;;31.06;21.77
66196;BME280;53000;45.182;5.736;2023-08-08T12:34:21;99266.41;;;30.96;22.62
66196;BME280;53000;45.182;5.736;2023-08-08T12:36:46;99271.63;;;31.03;22.80
66196;BME280;53000;45.182;5.736;2023-08-08T12:39:12;99260.25;;;31.13;22.86
66196;BME280;53000;45.182;5.736;2023-08-08T12:41:38;99257.59;;;31.22;21.92
66196;BME280;53000;45.182;5.736;2023-08-08T12:44:03;99249.44;;;31.39;22.37
66196;BME280;53000;45.182;5.736;2023-08-08T12:46:29;99266.25;;;31.53;21.75
66196;BME280;53000;45.182;5.736;2023-08-08T12:48:54;99258.91;;;31.57;22.15
66196;BME280;53000;45.182;5.736;2023-08-08T12:51:19;99251.97;;;31.54;22.27
66196;BME280;53000;45.182;5.736;2023-08-08T12:53:45;99245.44;;;31.45;21.40
66196;BME280;53000;45.182;5.736;2023-08-08T12:56:10;99239.00;;;31.45;22.29
66196;BME280;53000;45.182;5.736;2023-08-08T12:58:35;99243.69;;;31.49;22.38